createdAt,value
2023-10-12T00:01:31.158Z,19.8
2023-10-12T00:06:37.318Z,19.8
2023-10-12T00:11:43.503Z,19.8
2023-10-12T00:16:49.797Z,19.8
2023-10-12T00:21:55.940Z,19.8
2023-10-12T00:27:02.125Z,19.8
2023-10-12T00:37:14.547Z,19.7
2023-10-12T00:42:21.158Z,19.6
2023-10-12T00:47:26.979Z,19.6
2023-10-12T00:52:33.174Z,19.6
2023-10-12T00:57:39.415Z,19.5
2023-10-12T01:02:45.636Z,19.5
2023-10-12T01:07:51.943Z,19.4
2023-10-12T01:12:58.058Z,19.4
2023-10-12T01:18:04.260Z,19.3
2023-10-12T01:23:10.427Z,19.3
2023-10-12T01:28:16.635Z,19.2
2023-10-12T01:33:22.858Z,19.2
2023-10-12T01:38:29.063Z,19.1
2023-10-12T01:43:35.254Z,19.1
2023-10-12T01:48:41.482Z,19.0
2023-10-12T01:53:47.680Z,19.0
2023-10-12T01:58:53.899Z,18.9
2023-10-12T02:04:00.321Z,18.9
2023-10-12T02:09:06.296Z,18.9
2023-10-12T02:14:12.514Z,18.9
2023-10-12T02:19:18.716Z,18.8
2023-10-12T02:24:24.956Z,18.8
2023-10-12T02:29:31.136Z,18.8
2023-10-12T02:34:37.341Z,18.8
2023-10-12T02:39:43.586Z,18.8
2023-10-12T02:44:49.768Z,18.7
2023-10-12T02:49:55.965Z,18.7
2023-10-12T02:55:02.220Z,18.7
2023-10-12T03:00:08.384Z,18.7
2023-10-12T03:05:14.690Z,18.7
2023-10-12T03:15:27.015Z,18.6
2023-10-12T03:20:33.218Z,18.6
2023-10-12T03:25:39.442Z,18.6
2023-10-12T03:30:45.766Z,18.6
2023-10-12T03:35:51.844Z,18.5
2023-10-12T03:40:58.053Z,18.5
2023-10-12T03:46:04.301Z,18.5
2023-10-12T03:51:10.468Z,18.4
2023-10-12T03:56:15.701Z,18.4
2023-10-12T04:01:22.026Z,18.4
2023-10-12T04:06:28.128Z,18.3
2023-10-12T04:11:34.306Z,18.3
2023-10-12T04:16:40.550Z,18.3
2023-10-12T04:21:46.735Z,18.2
2023-10-12T04:26:52.950Z,18.2
2023-10-12T04:31:59.210Z,18.2
2023-10-12T04:37:05.409Z,18.2
2023-10-12T04:42:11.571Z,18.2
2023-10-12T04:47:17.772Z,18.1
2023-10-12T04:52:23.979Z,18.1
2023-10-12T04:57:30.238Z,18.1
2023-10-12T05:02:36.449Z,18.1
2023-10-12T05:07:42.611Z,18.0
2023-10-12T05:12:48.874Z,18.0
2023-10-12T05:17:55.056Z,18.0
2023-10-12T05:23:01.229Z,18.0
2023-10-12T05:33:13.735Z,18.0
2023-10-12T05:38:19.860Z,18.0
2023-10-12T05:43:26.061Z,18.0
2023-10-12T05:48:32.306Z,18.0
2023-10-12T05:53:38.479Z,18.0
2023-10-12T05:58:44.688Z,18.0
2023-10-12T06:03:50.976Z,18.0
2023-10-12T06:14:03.319Z,18.0
2023-10-12T06:19:09.634Z,18.0
2023-10-12T06:24:15.847Z,18.1
2023-10-12T06:29:21.960Z,18.1
2023-10-12T06:34:28.172Z,18.1
2023-10-12T06:39:34.382Z,18.1
2023-10-12T06:44:40.561Z,18.0
2023-10-12T06:49:46.772Z,18.0
2023-10-12T06:54:53.015Z,18.0
2023-10-12T06:59:59.233Z,18.0
2023-10-12T07:05:05.444Z,18.0
2023-10-12T07:10:11.863Z,18.0
2023-10-12T07:15:17.817Z,18.0
2023-10-12T07:20:24.052Z,18.0
2023-10-12T07:25:30.240Z,18.1
2023-10-12T07:30:36.489Z,18.1
2023-10-12T07:35:42.642Z,18.1
2023-10-12T07:40:50.260Z,18.1
2023-10-12T07:45:55.118Z,18.2
2023-10-12T07:51:01.268Z,18.2
2023-10-12T07:56:07.501Z,18.2
2023-10-12T08:01:13.764Z,18.2
2023-10-12T08:06:19.907Z,18.2
2023-10-12T08:11:26.119Z,18.2
2023-10-12T08:16:32.354Z,18.2
2023-10-12T08:21:38.648Z,18.2
2023-10-12T08:26:44.772Z,18.3
2023-10-12T08:31:50.983Z,18.3
2023-10-12T08:36:57.230Z,18.3
2023-10-12T08:42:03.368Z,18.3
2023-10-12T08:47:09.569Z,18.3
2023-10-12T08:52:15.811Z,18.3
2023-10-12T09:02:28.206Z,18.3
2023-10-12T09:07:34.394Z,18.3
2023-10-12T09:12:40.638Z,18.3
2023-10-12T09:17:47.085Z,18.3
2023-10-12T09:22:53.022Z,18.3
2023-10-12T09:27:58.266Z,18.4
2023-10-12T09:33:04.518Z,18.4
2023-10-12T09:38:10.663Z,18.5
2023-10-12T09:43:16.960Z,18.5
2023-10-12T09:48:23.078Z,18.6
2023-10-12T09:53:29.285Z,18.7
2023-10-12T09:58:34.530Z,18.8
2023-10-12T10:03:40.844Z,18.9
2023-10-12T10:08:46.934Z,19.0
2023-10-12T10:13:53.144Z,19.0
2023-10-12T10:18:59.412Z,19.1
2023-10-12T10:24:05.560Z,19.1
2023-10-12T10:29:11.763Z,19.2
2023-10-12T10:34:18.245Z,19.3
2023-10-12T10:39:24.182Z,19.3
2023-10-12T10:44:30.408Z,19.3
2023-10-12T10:49:36.692Z,19.3
2023-10-12T10:54:42.826Z,19.4
2023-10-12T10:59:49.020Z,19.4
2023-10-12T11:04:55.227Z,19.5
2023-10-12T11:10:01.514Z,19.5
2023-10-12T11:20:13.848Z,19.6
2023-10-12T11:25:20.096Z,19.6
2023-10-12T11:30:26.294Z,19.7
2023-10-12T11:35:32.475Z,19.7
2023-10-12T11:40:38.681Z,19.7
2023-10-12T11:45:44.906Z,19.8
2023-10-12T11:50:51.118Z,19.8
2023-10-12T11:55:58.918Z,19.9
2023-10-12T12:01:03.555Z,19.9
2023-10-12T12:06:09.721Z,20.0
2023-10-12T12:11:15.936Z,20.0
2023-10-12T12:16:22.365Z,20.0
2023-10-12T12:21:28.352Z,20.0
2023-10-12T12:26:34.860Z,20.0
2023-10-12T12:31:40.840Z,20.0
2023-10-12T12:36:46.996Z,20.0
2023-10-12T12:41:53.192Z,20.0
2023-10-12T12:46:59.435Z,20.0
2023-10-12T12:52:05.630Z,20.0
2023-10-12T12:57:11.826Z,20.0
2023-10-12T13:02:18.068Z,20.1
2023-10-12T13:07:24.275Z,20.0
2023-10-12T13:12:30.438Z,20.0
2023-10-12T13:17:36.651Z,20.0
2023-10-12T13:22:43.090Z,20.0
2023-10-12T13:27:49.114Z,19.9
2023-10-12T13:32:55.321Z,19.9
2023-10-12T13:38:01.482Z,20.0
2023-10-12T13:43:07.809Z,20.0
2023-10-12T13:48:13.893Z,20.0
2023-10-12T13:53:20.110Z,20.0
2023-10-12T13:58:26.518Z,20.0
2023-10-12T14:03:32.682Z,20.0
2023-10-12T14:08:38.737Z,19.9
2023-10-12T14:13:44.951Z,19.9
2023-10-12T14:18:51.679Z,19.9
2023-10-12T14:23:57.360Z,19.8
2023-10-12T14:29:03.567Z,19.8
2023-10-12T14:34:09.808Z,19.8
2023-10-12T14:39:15.989Z,19.7
2023-10-12T14:44:22.204Z,19.7
2023-10-12T14:49:28.446Z,19.7
2023-10-12T14:54:34.615Z,19.8
2023-10-12T14:59:40.819Z,19.7
2023-10-12T15:04:47.066Z,19.7
2023-10-12T15:09:53.262Z,19.6
2023-10-12T15:14:59.447Z,19.6
2023-10-12T15:20:05.654Z,19.5
2023-10-12T15:25:11.932Z,19.5
2023-10-12T15:30:17.079Z,19.4
2023-10-12T15:35:23.288Z,19.4
2023-10-12T15:40:29.527Z,19.4
2023-10-12T15:45:35.740Z,19.3
2023-10-12T15:50:41.919Z,19.3
2023-10-12T15:55:48.129Z,19.3
2023-10-12T16:00:54.362Z,19.2
2023-10-12T16:06:00.546Z,19.2
2023-10-12T16:11:06.757Z,19.2
2023-10-12T16:16:13.528Z,19.1
2023-10-12T16:21:19.174Z,19.1
2023-10-12T16:26:25.381Z,19.1
2023-10-12T16:31:31.656Z,19.1
2023-10-12T16:36:37.802Z,19.0
2023-10-12T16:41:44.056Z,19.0
2023-10-12T16:46:50.376Z,19.0
2023-10-12T16:51:56.438Z,19.0
2023-10-12T16:57:02.629Z,19.0
2023-10-12T17:02:08.993Z,19.0
2023-10-12T17:07:15.112Z,19.0
2023-10-12T17:12:21.249Z,19.0
2023-10-12T17:17:27.492Z,19.0
2023-10-12T17:22:34.046Z,19.0
2023-10-12T17:27:39.876Z,19.0
2023-10-12T17:32:46.132Z,19.0
2023-10-12T17:37:52.293Z,19.0
2023-10-12T17:42:58.536Z,19.0
2023-10-12T17:48:04.755Z,19.0
2023-10-12T17:53:10.924Z,19.0
2023-10-12T17:58:17.149Z,19.0
2023-10-12T18:03:23.387Z,19.1
2023-10-12T18:08:29.557Z,19.0
2023-10-12T18:13:35.891Z,19.1
2023-10-12T18:18:41.972Z,19.1
2023-10-12T18:23:48.169Z,19.1
2023-10-12T18:28:54.380Z,19.1
2023-10-12T18:34:00.607Z,19.1
2023-10-12T18:39:06.848Z,19.1
2023-10-12T18:44:13.021Z,19.1
2023-10-12T18:49:19.474Z,19.2
2023-10-12T18:54:25.471Z,19.2
2023-10-12T18:59:31.646Z,19.2
2023-10-12T19:04:37.899Z,19.2
2023-10-12T19:09:44.063Z,19.2
2023-10-12T19:14:50.272Z,19.2
2023-10-12T19:19:56.464Z,19.2
2023-10-12T19:25:02.820Z,19.2
2023-10-12T19:30:08.888Z,19.2
2023-10-12T19:35:15.136Z,19.2
2023-10-12T19:40:21.348Z,19.3
2023-10-12T19:45:27.505Z,19.3
2023-10-12T19:50:33.725Z,19.2
2023-10-12T19:55:39.927Z,19.3
2023-10-12T20:00:46.134Z,19.3
2023-10-12T20:05:52.351Z,19.3
2023-10-12T20:10:58.546Z,19.3
2023-10-12T20:16:04.766Z,19.3
2023-10-12T20:21:10.967Z,19.3
2023-10-12T20:26:17.174Z,19.3
2023-10-12T20:31:23.456Z,19.3
2023-10-12T20:36:29.597Z,19.3
2023-10-12T20:41:35.806Z,19.3
2023-10-12T20:46:42.080Z,19.3
2023-10-12T20:51:49.819Z,19.4
2023-10-12T20:56:54.442Z,19.4
2023-10-12T21:01:59.759Z,19.4
2023-10-12T21:07:06.042Z,19.4
2023-10-12T21:12:12.087Z,19.4
2023-10-12T21:17:18.330Z,19.4
2023-10-12T21:22:24.564Z,19.4
2023-10-12T21:27:31.060Z,19.5
2023-10-12T21:32:36.972Z,19.5
2023-10-12T21:37:43.263Z,19.5
2023-10-12T21:42:49.322Z,19.5
2023-10-12T21:47:55.650Z,19.5
2023-10-12T21:53:01.738Z,19.5
2023-10-12T21:58:07.977Z,19.5
2023-10-12T22:03:14.257Z,19.5
2023-10-12T22:08:20.400Z,19.5
2023-10-12T22:13:26.622Z,19.6
2023-10-12T22:18:32.793Z,19.6
2023-10-12T22:23:38.998Z,19.6
2023-10-12T22:28:45.189Z,19.6
2023-10-12T22:33:51.406Z,19.6
2023-10-12T22:38:57.614Z,19.6
2023-10-12T22:44:03.823Z,19.7
2023-10-12T22:49:10.057Z,19.7
2023-10-12T22:54:16.241Z,19.7
2023-10-12T22:59:22.650Z,19.7
2023-10-12T23:04:28.806Z,19.7
2023-10-12T23:09:34.872Z,19.7
2023-10-12T23:14:41.085Z,19.7
2023-10-12T23:19:47.314Z,19.7
2023-10-12T23:24:53.505Z,19.7
2023-10-12T23:29:59.727Z,19.7
2023-10-12T23:35:05.932Z,19.7
2023-10-12T23:40:12.139Z,19.7
2023-10-12T23:45:18.341Z,19.7
2023-10-12T23:50:24.643Z,19.7
2023-10-12T23:55:30.953Z,19.7
